createdAt,value
2022-10-23T00:00:03.969Z,153.35
2022-10-23T00:02:06.357Z,135.45
2022-10-23T00:04:20.325Z,129.50
2022-10-23T00:06:22.857Z,131.25
2022-10-23T00:08:24.927Z,91.25
2022-10-23T00:10:28.957Z,65.60
2022-10-23T00:12:31.124Z,64.03
2022-10-23T00:14:36.478Z,70.22
2022-10-23T00:16:38.703Z,69.85
2022-10-23T00:18:41.012Z,53.83
2022-10-23T00:20:43.190Z,51.53
2022-10-23T00:22:45.500Z,47.88
2022-10-23T00:24:47.816Z,50.08
2022-10-23T00:26:51.099Z,49.92
2022-10-23T00:28:54.469Z,48.95
2022-10-23T00:30:56.901Z,41.58
2022-10-23T00:32:59.008Z,39.00
2022-10-23T00:35:01.331Z,35.60
2022-10-23T00:37:03.460Z,42.42
2022-10-23T00:39:06.532Z,48.03
2022-10-23T00:41:14.935Z,49.05
2022-10-23T00:43:23.148Z,47.47
2022-10-23T00:45:27.437Z,44.50
2022-10-23T00:47:31.971Z,42.58
2022-10-23T00:49:34.647Z,48.72
2022-10-23T00:51:43.330Z,49.60
2022-10-23T00:54:01.408Z,44.60
2022-10-23T00:56:15.214Z,56.10
2022-10-23T00:58:20.483Z,54.70
2022-10-23T01:00:32.091Z,53.67
2022-10-23T01:02:35.014Z,54.95
2022-10-23T01:04:38.058Z,56.92
2022-10-23T01:07:15.943Z,56.95
2022-10-23T01:09:42.618Z,65.65
2022-10-23T01:12:07.760Z,84.18
2022-10-23T01:14:18.817Z,94.18
2022-10-23T01:16:27.269Z,80.80
2022-10-23T01:18:41.670Z,64.93
2022-10-23T01:20:43.811Z,57.88
2022-10-23T01:22:45.754Z,63.08
2022-10-23T01:25:14.118Z,58.47
2022-10-23T01:27:25.384Z,57.63
2022-10-23T01:29:39.413Z,49.95
2022-10-23T01:31:57.121Z,38.78
2022-10-23T01:34:06.383Z,31.38
2022-10-23T01:36:12.969Z,33.60
2022-10-23T01:38:27.492Z,37.40
2022-10-23T01:40:44.588Z,61.22
2022-10-23T01:42:51.014Z,58.90
2022-10-23T01:45:31.639Z,64.13
2022-10-23T01:47:38.677Z,55.70
2022-10-23T01:49:44.870Z,45.40
2022-10-23T01:51:51.971Z,48.00
2022-10-23T01:53:58.650Z,61.72
2022-10-23T01:56:03.055Z,82.22
2022-10-23T01:58:08.695Z,75.68
2022-10-23T02:00:19.016Z,72.57
2022-10-23T02:02:28.776Z,58.78
2022-10-23T02:04:41.408Z,54.95
2022-10-23T02:06:43.918Z,41.65
2022-10-23T02:08:46.280Z,38.00
2022-10-23T02:11:14.501Z,44.67
2022-10-23T02:13:25.775Z,48.20
2022-10-23T02:15:36.387Z,45.70
2022-10-23T02:18:03.701Z,40.40
2022-10-23T02:20:08.901Z,35.58
2022-10-23T02:22:26.441Z,35.08
2022-10-23T02:24:36.725Z,38.08
2022-10-23T02:26:47.093Z,42.22
2022-10-23T02:28:58.624Z,46.03
2022-10-23T02:31:04.035Z,43.25
2022-10-23T02:33:09.263Z,39.45
2022-10-23T02:35:13.466Z,32.40
2022-10-23T02:37:15.965Z,32.88
2022-10-23T02:39:18.360Z,30.90
2022-10-23T02:41:20.320Z,38.15
2022-10-23T02:43:32.567Z,62.08
2022-10-23T02:46:00.816Z,69.90
2022-10-23T02:48:27.716Z,81.72
2022-10-23T02:51:05.043Z,62.53
2022-10-23T02:53:19.139Z,42.22
2022-10-23T02:55:49.958Z,36.17
2022-10-23T02:58:17.741Z,36.42
2022-10-23T03:00:24.244Z,47.85
2022-10-23T03:02:33.380Z,53.05
2022-10-23T03:04:37.485Z,58.63
2022-10-23T03:06:39.785Z,53.45
2022-10-23T03:08:44.287Z,50.63
2022-10-23T03:10:46.403Z,45.85
2022-10-23T03:12:49.070Z,47.28
2022-10-23T03:14:51.794Z,59.58
2022-10-23T03:16:54.404Z,58.47
2022-10-23T03:19:00.824Z,43.92
2022-10-23T03:21:04.795Z,39.13
2022-10-23T03:23:13.747Z,35.05
2022-10-23T03:25:16.099Z,38.25
2022-10-23T03:28:20.681Z,52.58
2022-10-23T03:30:23.546Z,56.28
2022-10-23T03:32:29.555Z,57.80
2022-10-23T03:34:32.102Z,52.15
2022-10-23T03:36:37.041Z,46.88
2022-10-23T03:38:39.966Z,40.85
2022-10-23T03:40:43.303Z,41.63
2022-10-23T03:42:47.478Z,45.72
2022-10-23T03:44:53.981Z,48.95
2022-10-23T03:46:56.568Z,53.60
2022-10-23T03:48:59.516Z,54.60
2022-10-23T03:51:05.388Z,47.28
2022-10-23T03:53:07.399Z,45.95
2022-10-23T03:55:09.811Z,49.53
2022-10-23T03:57:12.375Z,46.83
2022-10-23T03:59:14.437Z,44.95
2022-10-23T04:01:16.588Z,51.17
2022-10-23T04:03:20.513Z,44.53
2022-10-23T04:05:22.726Z,44.80
2022-10-23T04:07:29.923Z,47.63
2022-10-23T04:09:36.227Z,56.38
2022-10-23T04:11:39.044Z,69.28
2022-10-23T04:13:41.009Z,87.97
2022-10-23T04:15:50.683Z,88.30
2022-10-23T04:17:52.903Z,79.18
2022-10-23T04:19:55.357Z,77.65
2022-10-23T04:21:57.431Z,72.97
2022-10-23T04:23:59.768Z,95.88
2022-10-23T04:26:02.373Z,113.00
2022-10-23T04:28:04.851Z,118.20
2022-10-23T04:30:12.703Z,91.20
2022-10-23T04:32:14.863Z,61.17
2022-10-23T04:34:19.663Z,73.38
2022-10-23T04:36:22.000Z,78.68
2022-10-23T04:38:24.132Z,76.20
2022-10-23T04:40:25.983Z,63.13
2022-10-23T04:42:29.965Z,58.58
2022-10-23T04:44:35.205Z,76.05
2022-10-23T04:46:37.986Z,74.57
2022-10-23T04:48:40.613Z,73.80
2022-10-23T04:51:18.425Z,87.53
2022-10-23T04:53:31.146Z,86.30
2022-10-23T04:56:06.174Z,90.75
2022-10-23T04:58:21.385Z,110.57
2022-10-23T05:00:24.696Z,114.68
2022-10-23T05:02:29.372Z,126.40
2022-10-23T05:04:32.083Z,155.13
2022-10-23T05:07:12.713Z,132.25
2022-10-23T05:09:37.641Z,110.28
2022-10-23T05:12:02.892Z,89.82
2022-10-23T05:14:05.559Z,70.78
2022-10-23T05:16:07.518Z,58.72
2022-10-23T05:18:17.905Z,53.00
2022-10-23T05:20:23.921Z,41.90
2022-10-23T05:22:30.680Z,41.95
2022-10-23T05:24:33.383Z,48.65
2022-10-23T05:26:37.461Z,45.42
2022-10-23T05:28:42.797Z,47.28
2022-10-23T05:30:49.477Z,38.72
2022-10-23T05:32:55.397Z,40.92
2022-10-23T05:35:03.095Z,47.55
2022-10-23T05:37:09.075Z,55.92
2022-10-23T05:39:13.350Z,81.15
2022-10-23T05:44:50.154Z,85.15
2022-10-23T05:47:16.121Z,75.97
2022-10-23T05:49:41.042Z,62.35
2022-10-23T05:52:15.645Z,55.30
2022-10-23T05:54:28.155Z,51.88
2022-10-23T05:56:37.013Z,50.97
2022-10-23T05:59:05.549Z,42.67
2022-10-23T06:01:25.613Z,43.60
2022-10-23T06:03:36.246Z,41.95
2022-10-23T06:05:41.056Z,38.22
2022-10-23T06:08:03.944Z,35.88
2022-10-23T06:10:06.887Z,35.35
2022-10-23T06:12:14.206Z,34.72
2022-10-23T06:14:19.951Z,32.90
2022-10-23T06:16:26.181Z,35.50
2022-10-23T06:18:29.134Z,32.25
2022-10-23T06:20:39.500Z,34.10
2022-10-23T06:22:46.836Z,35.00
2022-10-23T06:25:09.674Z,30.85
2022-10-23T06:27:11.778Z,31.65
2022-10-23T06:29:18.231Z,36.70
2022-10-23T06:31:21.826Z,35.15
2022-10-23T06:33:25.795Z,34.88
2022-10-23T06:35:28.054Z,35.35
2022-10-23T06:37:30.048Z,34.97
2022-10-23T06:39:41.541Z,34.03
2022-10-23T06:41:53.096Z,38.92
2022-10-23T06:44:13.670Z,36.42
2022-10-23T06:46:24.489Z,33.83
2022-10-23T06:49:38.439Z,35.05
2022-10-23T06:51:41.697Z,36.00
2022-10-23T06:53:47.580Z,33.60
2022-10-23T06:56:09.174Z,33.83
2022-10-23T06:58:12.143Z,31.45
2022-10-23T07:00:40.625Z,33.28
2022-10-23T07:02:43.626Z,31.27
2022-10-23T07:04:45.673Z,30.35
2022-10-23T07:06:54.759Z,28.05
2022-10-23T07:09:00.723Z,27.23
2022-10-23T07:11:23.535Z,26.55
2022-10-23T07:13:26.115Z,26.38
2022-10-23T07:15:46.846Z,36.75
2022-10-23T07:17:54.058Z,46.42
2022-10-23T07:19:57.726Z,49.97
2022-10-23T07:22:00.031Z,31.55
2022-10-23T07:24:13.776Z,29.23
2022-10-23T07:26:17.095Z,32.22
2022-10-23T07:28:19.540Z,28.58
2022-10-23T07:30:21.482Z,26.90
2022-10-23T07:32:28.751Z,26.13
2022-10-23T07:34:49.653Z,26.75
2022-10-23T07:37:00.478Z,26.42
2022-10-23T07:39:02.757Z,23.08
2022-10-23T07:41:08.986Z,21.63
2022-10-23T07:43:14.021Z,20.85
2022-10-23T07:45:16.107Z,18.45
2022-10-23T07:47:20.015Z,18.17
2022-10-23T07:49:25.580Z,21.40
2022-10-23T07:51:27.510Z,19.08
2022-10-23T07:53:35.622Z,19.33
2022-10-23T07:55:58.077Z,18.77
2022-10-23T07:58:02.353Z,18.63
2022-10-23T08:00:18.604Z,17.67
2022-10-23T08:02:30.837Z,15.75
2022-10-23T08:04:32.771Z,18.23
2022-10-23T08:06:41.406Z,14.77
2022-10-23T08:10:53.477Z,14.73
2022-10-23T08:13:01.590Z,17.05
2022-10-23T08:15:23.437Z,15.82
2022-10-23T08:17:30.169Z,15.52
2022-10-23T08:19:48.551Z,17.02
2022-10-23T08:21:54.868Z,17.02
2022-10-23T08:23:58.102Z,18.00
2022-10-23T08:26:05.556Z,19.05
2022-10-23T08:28:11.912Z,18.98
2022-10-23T08:30:25.271Z,17.75
2022-10-23T08:32:31.211Z,19.30
2022-10-23T08:34:34.775Z,17.77
2022-10-23T08:36:39.375Z,17.65
2022-10-23T08:38:41.807Z,17.13
2022-10-23T08:40:48.703Z,17.23
2022-10-23T08:43:12.149Z,16.15
2022-10-23T08:46:04.136Z,17.63
2022-10-23T08:48:38.250Z,17.30
2022-10-23T08:51:12.898Z,17.65
2022-10-23T08:53:18.149Z,16.15
2022-10-23T08:55:22.962Z,15.90
2022-10-23T08:57:33.581Z,15.18
2022-10-23T08:59:44.391Z,14.57
2022-10-23T09:02:04.848Z,15.25
2022-10-23T09:04:07.292Z,14.52
2022-10-23T09:06:20.359Z,14.68
2022-10-23T09:08:32.032Z,14.35
2022-10-23T09:10:56.887Z,15.30
2022-10-23T09:13:29.188Z,17.55
2022-10-23T09:15:41.765Z,17.38
2022-10-23T09:17:47.999Z,18.65
2022-10-23T09:19:59.299Z,17.35
2022-10-23T09:22:01.668Z,16.58
2022-10-23T09:24:04.458Z,16.48
2022-10-23T09:26:18.590Z,17.42
2022-10-23T09:28:30.423Z,16.48
2022-10-23T09:30:34.015Z,15.27
2022-10-23T09:32:38.463Z,16.02
2022-10-23T09:34:54.748Z,15.02
2022-10-23T09:37:00.201Z,16.52
2022-10-23T09:39:02.426Z,17.35
2022-10-23T09:41:16.184Z,16.13
2022-10-23T09:43:23.473Z,15.40
2022-10-23T09:45:34.968Z,15.05
2022-10-23T09:47:41.399Z,13.82
2022-10-23T09:49:49.232Z,15.00
2022-10-23T09:51:54.508Z,12.80
2022-10-23T09:54:00.858Z,14.73
2022-10-23T09:56:24.471Z,14.35
2022-10-23T09:58:54.844Z,14.52
2022-10-23T10:00:57.574Z,14.50
2022-10-23T10:03:22.707Z,15.25
2022-10-23T10:05:39.894Z,15.25
2022-10-23T10:08:03.618Z,14.77
2022-10-23T10:10:13.911Z,15.10
2022-10-23T10:12:45.897Z,13.32
2022-10-23T10:15:05.272Z,13.35
2022-10-23T10:17:15.083Z,12.50
2022-10-23T10:19:35.219Z,11.63
2022-10-23T10:21:50.614Z,12.10
2022-10-23T10:24:00.697Z,11.95
2022-10-23T10:26:02.669Z,12.68
2022-10-23T10:28:20.914Z,11.63
2022-10-23T10:30:25.007Z,10.85
2022-10-23T10:32:43.504Z,10.02
2022-10-23T10:35:19.397Z,10.80
2022-10-23T10:38:02.998Z,20.98
2022-10-23T10:40:34.801Z,18.73
2022-10-23T10:42:58.652Z,13.98
2022-10-23T10:45:01.816Z,17.20
2022-10-23T10:47:31.728Z,18.10
2022-10-23T10:49:40.888Z,16.25
2022-10-23T10:52:06.862Z,22.13
2022-10-23T10:54:21.153Z,18.58
2022-10-23T10:56:28.156Z,19.98
2022-10-23T10:58:42.211Z,21.95
2022-10-23T11:00:46.810Z,19.70
2022-10-23T11:02:48.633Z,17.60
2022-10-23T11:04:52.971Z,17.98
2022-10-23T11:06:58.179Z,15.10
2022-10-23T11:09:20.606Z,13.68
2022-10-23T11:11:32.572Z,12.43
2022-10-23T11:13:40.501Z,12.05
2022-10-23T11:15:44.307Z,11.48
2022-10-23T11:17:55.508Z,11.38
2022-10-23T11:20:18.658Z,13.85
2022-10-23T11:22:29.704Z,13.63
2022-10-23T11:24:49.468Z,12.73
2022-10-23T11:27:10.849Z,11.02
2022-10-23T11:29:27.917Z,10.60
2022-10-23T11:31:59.852Z,10.63
2022-10-23T11:34:53.050Z,10.18
2022-10-23T11:36:59.031Z,11.38
2022-10-23T11:39:22.336Z,22.50
2022-10-23T11:41:34.007Z,22.15
2022-10-23T11:43:50.642Z,23.20
2022-10-23T11:45:52.602Z,53.08
2022-10-23T11:48:22.951Z,61.15
2022-10-23T11:50:34.342Z,43.17
2022-10-23T11:52:45.618Z,34.83
2022-10-23T11:55:22.814Z,51.13
2022-10-23T11:57:25.399Z,105.07
2022-10-23T11:59:50.118Z,126.65
2022-10-23T12:01:55.715Z,70.47
2022-10-23T12:04:19.043Z,47.65
2022-10-23T12:06:31.508Z,35.90
2022-10-23T12:08:40.599Z,22.98
2022-10-23T12:10:48.326Z,18.15
2022-10-23T12:13:06.275Z,21.35
2022-10-23T12:15:19.182Z,18.55
2022-10-23T12:17:23.920Z,12.60
2022-10-23T12:19:30.753Z,10.45
2022-10-23T12:21:35.900Z,12.82
2022-10-23T12:24:09.778Z,10.02
2022-10-23T12:26:23.638Z,35.03
2022-10-23T12:28:38.280Z,25.58
2022-10-23T12:30:50.811Z,23.10
2022-10-23T12:33:20.866Z,22.25
2022-10-23T12:35:26.055Z,13.70
2022-10-23T12:37:46.365Z,24.80
2022-10-23T12:39:59.363Z,24.35
2022-10-23T12:42:01.345Z,15.38
2022-10-23T12:44:05.341Z,20.83
2022-10-23T12:46:33.983Z,16.98
2022-10-23T12:48:36.528Z,15.40
2022-10-23T12:50:38.562Z,13.85
2022-10-23T12:53:10.111Z,15.20
2022-10-23T12:55:14.648Z,14.82
2022-10-23T12:57:25.841Z,12.88
2022-10-23T12:59:39.344Z,10.98
2022-10-23T13:01:43.347Z,14.25
2022-10-23T13:03:46.203Z,14.93
2022-10-23T13:05:50.749Z,14.48
2022-10-23T13:07:53.181Z,10.10
2022-10-23T13:10:04.990Z,10.00
2022-10-23T13:15:58.314Z,9.18
2022-10-23T13:18:03.700Z,8.02
2022-10-23T13:20:35.362Z,9.18
2022-10-23T13:22:40.546Z,9.68
2022-10-23T13:24:43.259Z,9.45
2022-10-23T13:26:45.594Z,8.48
2022-10-23T13:28:47.960Z,8.98
2022-10-23T13:31:08.199Z,9.80
2022-10-23T13:33:21.979Z,9.60
2022-10-23T13:35:24.783Z,9.18
2022-10-23T13:37:30.685Z,8.55
2022-10-23T13:39:34.272Z,8.60
2022-10-23T13:41:40.110Z,7.63
2022-10-23T13:43:43.235Z,8.02
2022-10-23T13:45:45.625Z,8.73
2022-10-23T13:47:47.864Z,11.25
2022-10-23T13:49:50.179Z,11.35
2022-10-23T13:51:55.368Z,14.27
2022-10-23T13:53:57.782Z,14.82
2022-10-23T13:55:59.859Z,13.38
2022-10-23T13:58:02.760Z,12.95
2022-10-23T14:00:05.404Z,15.38
2022-10-23T14:02:25.118Z,27.30
2022-10-23T14:04:27.593Z,27.10
2022-10-23T14:06:30.552Z,54.95
2022-10-23T14:08:32.532Z,104.95
2022-10-23T14:10:35.187Z,104.65
2022-10-23T14:12:44.383Z,92.60
2022-10-23T14:14:51.948Z,92.40
2022-10-23T14:16:54.990Z,90.60
2022-10-23T14:18:59.797Z,108.90
2022-10-23T14:21:03.195Z,128.88
2022-10-23T14:23:05.498Z,115.47
2022-10-23T14:25:07.794Z,119.50
2022-10-23T14:27:09.846Z,118.93
2022-10-23T14:29:21.186Z,104.70
2022-10-23T14:31:26.349Z,75.82
2022-10-23T14:33:28.379Z,55.30
2022-10-23T14:35:30.695Z,58.03
2022-10-23T14:37:34.475Z,55.40
2022-10-23T14:39:37.006Z,44.42
2022-10-23T14:41:40.641Z,31.23
2022-10-23T14:43:43.322Z,26.20
2022-10-23T14:45:45.521Z,29.08
2022-10-23T14:47:47.845Z,27.30
2022-10-23T14:49:52.513Z,24.30
2022-10-23T14:51:54.695Z,23.23
2022-10-23T14:54:01.763Z,32.17
2022-10-23T14:56:04.834Z,35.40
2022-10-23T14:58:07.372Z,32.47
2022-10-23T15:00:10.202Z,28.10
2022-10-23T15:02:12.416Z,24.77
2022-10-23T15:04:14.931Z,24.27
2022-10-23T15:06:18.495Z,23.77
2022-10-23T15:08:24.801Z,24.05
2022-10-23T15:10:27.319Z,25.48
2022-10-23T15:12:29.544Z,39.92
2022-10-23T15:14:31.914Z,42.60
2022-10-23T15:16:41.311Z,43.08
2022-10-23T15:18:43.688Z,45.90
2022-10-23T15:20:52.628Z,46.55
2022-10-23T15:22:54.675Z,48.47
2022-10-23T15:24:57.535Z,46.60
2022-10-23T15:27:00.381Z,49.72
2022-10-23T15:29:02.696Z,46.88
2022-10-23T15:31:05.603Z,47.10
2022-10-23T15:33:08.036Z,39.63
2022-10-23T15:35:10.168Z,35.45
2022-10-23T15:37:12.135Z,36.33
2022-10-23T15:39:17.677Z,34.85
2022-10-23T15:41:28.374Z,34.03
2022-10-23T15:43:30.445Z,31.52
2022-10-23T15:45:32.748Z,29.13
2022-10-23T15:47:34.885Z,28.67
2022-10-23T15:49:37.554Z,25.80
2022-10-23T15:51:40.897Z,25.65
2022-10-23T15:53:43.166Z,23.55
2022-10-23T15:55:45.694Z,24.27
2022-10-23T15:57:48.057Z,22.88
2022-10-23T15:59:51.450Z,20.00
2022-10-23T16:01:54.354Z,18.38
2022-10-23T16:03:56.662Z,19.00
2022-10-23T16:05:58.768Z,18.85
2022-10-23T16:08:00.929Z,19.20
2022-10-23T16:10:03.139Z,19.52
2022-10-23T16:12:05.465Z,20.92
2022-10-23T16:14:08.453Z,20.55
2022-10-23T16:16:11.129Z,20.75
2022-10-23T16:18:13.340Z,20.42
2022-10-23T16:20:16.257Z,19.20
2022-10-23T16:22:18.688Z,19.55
2022-10-23T16:24:20.689Z,20.63
2022-10-23T16:26:23.794Z,20.67
2022-10-23T16:28:25.838Z,19.88
2022-10-23T16:30:28.287Z,19.38
2022-10-23T16:32:30.390Z,19.65
2022-10-23T16:34:32.439Z,26.45
2022-10-23T16:36:34.939Z,39.85
2022-10-23T16:38:56.030Z,36.30
2022-10-23T16:41:18.333Z,37.25
2022-10-23T16:43:38.835Z,33.17
2022-10-23T16:46:12.944Z,29.88
2022-10-23T16:48:15.210Z,27.25
2022-10-23T16:50:18.038Z,25.08
2022-10-23T16:52:20.328Z,23.83
2022-10-23T16:54:22.443Z,21.92
2022-10-23T16:56:28.797Z,21.27
2022-10-23T16:58:30.850Z,20.08
2022-10-23T17:00:35.382Z,20.33
2022-10-23T17:02:38.365Z,19.88
2022-10-23T17:04:40.731Z,18.92
2022-10-23T17:06:42.726Z,18.95
2022-10-23T17:08:47.521Z,17.83
2022-10-23T17:10:49.501Z,15.90
2022-10-23T17:12:51.748Z,15.80
2022-10-23T17:14:53.864Z,16.25
2022-10-23T17:17:01.664Z,17.83
2022-10-23T17:19:15.995Z,18.10
2022-10-23T17:21:23.270Z,21.55
2022-10-23T17:23:25.554Z,19.50
2022-10-23T17:25:27.939Z,18.50
2022-10-23T17:27:29.858Z,17.73
2022-10-23T17:29:31.997Z,15.95
2022-10-23T17:31:36.062Z,15.60
2022-10-23T17:33:38.332Z,15.32
2022-10-23T17:35:40.281Z,15.15
2022-10-23T17:37:42.339Z,14.35
2022-10-23T17:39:44.442Z,14.60
2022-10-23T17:41:47.399Z,15.07
2022-10-23T17:43:50.441Z,16.75
2022-10-23T17:45:52.505Z,16.20
2022-10-23T17:47:54.616Z,14.65
2022-10-23T17:49:56.715Z,15.48
2022-10-23T17:51:58.953Z,14.43
2022-10-23T17:54:04.643Z,15.52
2022-10-23T17:56:08.945Z,17.40
2022-10-23T17:58:11.133Z,17.45
2022-10-23T18:00:13.242Z,22.60
2022-10-23T18:02:15.342Z,94.53
2022-10-23T18:04:19.238Z,117.82
2022-10-23T18:06:29.657Z,106.18
2022-10-23T18:08:31.708Z,83.53
2022-10-23T18:10:36.290Z,73.63
2022-10-23T18:16:27.829Z,33.63
2022-10-23T18:18:29.990Z,31.33
2022-10-23T18:20:31.964Z,29.25
2022-10-23T18:22:34.174Z,30.50
2022-10-23T18:24:38.408Z,29.02
2022-10-23T18:26:41.665Z,26.90
2022-10-23T18:28:45.766Z,24.83
2022-10-23T18:30:50.188Z,26.33
2022-10-23T18:32:55.958Z,31.15
2022-10-23T18:34:58.286Z,36.78
2022-10-23T18:37:01.116Z,39.85
2022-10-23T18:39:04.837Z,37.97
2022-10-23T18:41:07.185Z,39.72
2022-10-23T18:43:14.853Z,38.20
2022-10-23T18:45:17.400Z,38.13
2022-10-23T18:47:19.484Z,47.60
2022-10-23T18:49:21.654Z,42.08
2022-10-23T18:51:32.166Z,59.00
2022-10-23T18:53:34.266Z,54.70
2022-10-23T18:55:36.408Z,61.72
2022-10-23T18:57:39.109Z,52.90
2022-10-23T18:59:41.118Z,45.35
2022-10-23T19:01:43.714Z,41.13
2022-10-23T19:03:45.993Z,32.97
2022-10-23T19:05:48.802Z,23.17
2022-10-23T19:07:51.071Z,23.13
2022-10-23T19:09:53.473Z,21.90
2022-10-23T19:11:55.605Z,27.77
2022-10-23T19:13:57.565Z,33.83
2022-10-23T19:15:59.774Z,60.33
2022-10-23T19:18:02.290Z,102.68
2022-10-23T19:20:11.238Z,88.95
2022-10-23T19:22:15.481Z,81.57
2022-10-23T19:24:25.854Z,81.55
2022-10-23T19:26:29.754Z,46.20
2022-10-23T19:28:37.598Z,57.40
2022-10-23T19:30:40.380Z,58.00
2022-10-23T19:32:44.322Z,62.30
2022-10-23T19:34:46.724Z,61.65
2022-10-23T19:36:50.000Z,73.13
2022-10-23T19:38:51.966Z,62.70
2022-10-23T19:40:54.112Z,45.30
2022-10-23T19:42:56.204Z,39.00
2022-10-23T19:44:58.371Z,35.17
2022-10-23T19:47:00.399Z,34.80
2022-10-23T19:49:02.383Z,32.67
2022-10-23T19:51:09.365Z,31.15
2022-10-23T19:53:11.362Z,32.20
2022-10-23T19:56:15.243Z,37.83
2022-10-23T19:58:17.079Z,51.40
2022-10-23T20:00:20.653Z,49.75
2022-10-23T20:02:22.800Z,38.90
2022-10-23T20:04:24.923Z,33.63
2022-10-23T20:06:29.486Z,26.77
2022-10-23T20:08:34.952Z,25.45
2022-10-23T20:10:41.880Z,24.35
2022-10-23T20:12:47.539Z,24.40
2022-10-23T20:15:01.925Z,22.55
2022-10-23T20:17:03.813Z,25.15
2022-10-23T20:19:09.582Z,23.30
2022-10-23T20:21:11.770Z,25.33
2022-10-23T20:23:14.097Z,24.80
2022-10-23T20:25:19.137Z,23.48
2022-10-23T20:27:21.244Z,23.20
2022-10-23T20:29:24.941Z,25.30
2022-10-23T20:31:28.335Z,32.33
2022-10-23T20:33:32.887Z,37.65
2022-10-23T20:35:42.641Z,35.08
2022-10-23T20:37:44.754Z,23.38
2022-10-23T20:39:47.252Z,18.05
2022-10-23T20:41:49.617Z,16.73
2022-10-23T20:43:51.669Z,13.70
2022-10-23T20:45:53.513Z,13.30
2022-10-23T20:47:57.703Z,13.77
2022-10-23T20:50:00.034Z,13.20
2022-10-23T20:52:03.254Z,13.68
2022-10-23T20:54:08.189Z,14.63
2022-10-23T20:56:14.375Z,15.00
2022-10-23T20:58:16.298Z,15.43
2022-10-23T21:01:21.630Z,15.73
2022-10-23T21:03:23.754Z,16.27
2022-10-23T21:05:25.847Z,16.80
2022-10-23T21:07:27.978Z,15.52
2022-10-23T21:09:30.847Z,15.20
2022-10-23T21:11:34.128Z,15.85
2022-10-23T21:13:36.651Z,15.88
2022-10-23T21:15:38.736Z,14.57
2022-10-23T21:17:41.300Z,15.48
2022-10-23T21:19:43.482Z,14.75
2022-10-23T21:21:45.423Z,13.93
2022-10-23T21:23:49.504Z,13.95
2022-10-23T21:25:51.489Z,13.52
2022-10-23T21:27:53.498Z,13.68
2022-10-23T21:29:55.515Z,13.45
2022-10-23T21:32:00.128Z,14.45
2022-10-23T21:34:02.467Z,13.63
2022-10-23T21:36:13.665Z,13.63
2022-10-23T21:38:16.416Z,13.95
2022-10-23T21:40:18.763Z,12.65
2022-10-23T21:42:21.317Z,11.52
2022-10-23T21:44:23.410Z,11.32
2022-10-23T21:46:26.982Z,10.82
2022-10-23T21:48:29.166Z,10.80
2022-10-23T21:50:34.153Z,10.63
2022-10-23T21:52:36.401Z,10.90
2022-10-23T21:54:38.486Z,11.05
2022-10-23T21:56:45.816Z,11.48
2022-10-23T21:58:47.805Z,10.00
2022-10-23T22:00:50.271Z,10.57
2022-10-23T22:02:52.370Z,11.32
2022-10-23T22:04:54.748Z,10.57
2022-10-23T22:06:56.723Z,10.75
2022-10-23T22:09:00.648Z,12.95
2022-10-23T22:11:05.582Z,12.18
2022-10-23T22:13:07.612Z,13.70
2022-10-23T22:15:10.302Z,13.93
2022-10-23T22:17:12.277Z,12.75
2022-10-23T22:19:16.491Z,12.45
2022-10-23T22:21:21.249Z,12.48
2022-10-23T22:23:23.339Z,12.18
2022-10-23T22:25:25.479Z,12.82
2022-10-23T22:27:28.085Z,10.98
2022-10-23T22:29:31.059Z,12.15
2022-10-23T22:31:34.867Z,12.05
2022-10-23T22:33:37.028Z,11.15
2022-10-23T22:35:39.167Z,12.15
2022-10-23T22:37:41.503Z,11.23
2022-10-23T22:39:43.535Z,11.73
2022-10-23T22:41:47.189Z,10.68
2022-10-23T22:43:53.641Z,11.60
2022-10-23T22:46:02.947Z,12.13
2022-10-23T22:48:05.180Z,11.73
2022-10-23T22:50:07.863Z,10.82
2022-10-23T22:52:10.058Z,11.68
2022-10-23T22:54:12.135Z,10.23
2022-10-23T22:56:18.075Z,11.15
2022-10-23T22:58:20.641Z,10.80
2022-10-23T23:00:22.767Z,10.88
2022-10-23T23:02:24.700Z,10.40
2022-10-23T23:04:43.125Z,9.88
2022-10-23T23:06:45.849Z,10.20
2022-10-23T23:08:49.436Z,11.82
2022-10-23T23:10:56.587Z,11.38
2022-10-23T23:12:58.606Z,10.80
2022-10-23T23:15:00.954Z,10.23
2022-10-23T23:17:03.905Z,9.93
2022-10-23T23:19:06.429Z,9.95
2022-10-23T23:21:08.396Z,9.00
2022-10-23T23:23:12.700Z,8.70
2022-10-23T23:25:14.828Z,8.85
2022-10-23T23:27:16.799Z,8.82
2022-10-23T23:29:19.667Z,8.10
2022-10-23T23:31:25.534Z,8.32
2022-10-23T23:33:27.808Z,8.25
2022-10-23T23:35:30.144Z,8.05
2022-10-23T23:37:32.152Z,7.72
2022-10-23T23:39:34.315Z,8.38
2022-10-23T23:41:36.540Z,7.88
2022-10-23T23:43:38.880Z,7.10
2022-10-23T23:45:41.369Z,7.03
2022-10-23T23:47:43.626Z,6.95
2022-10-23T23:49:45.954Z,7.18
2022-10-23T23:51:48.151Z,7.40
2022-10-23T23:53:51.301Z,7.57
2022-10-23T23:55:53.461Z,6.68
2022-10-23T23:57:56.687Z,6.85
2022-10-23T23:59:59.075Z,6.75
